Time;durP1;ratioP1;P1;durP2;ratioP2;P2;SDS_P1;SDS_P2;PMS_P1;PMS_P2;Temp;Humidity;BMP_temperature;BMP_pressure;BME280_temperature;BME280_humidity;BME280_pressure;Samples;Min_cycle;Max_cycle;Signal;HPM_P1;HPM_P2
2022/04/27 02:45:49;;;;;;;0.68;0.68;;;7.10;71.60;;;;;;5160686;27;20775;-60
2022/04/27 02:48:15;;;;;;;2.17;1.10;;;6.90;72.80;;;;;;5126408;28;20089;-60
2022/04/27 02:53:25;;;;;;;2.22;1.35;;;7.00;75.00;;;;;;5127467;28;20054;-58
2022/04/27 02:55:51;;;;;;;1.48;1.38;;;7.10;75.00;;;;;;5126440;28;20035;-60
2022/04/27 02:58:17;;;;;;;1.15;1.05;;;7.20;75.00;;;;;;5112662;28;20132;-59
2022/04/27 03:00:44;;;;;;;1.38;1.13;;;7.30;74.70;;;;;;5119012;28;20461;-58
2022/04/27 03:03:11;;;;;;;1.80;1.65;;;7.40;74.20;;;;;;5126691;27;20039;-58
2022/04/27 03:05:36;;;;;;;3.03;1.85;;;7.50;73.90;;;;;;5126148;27;20038;-59
2022/04/27 03:08:02;;;;;;;3.67;1.00;;;7.50;73.40;;;;;;5127672;28;20023;-59
2022/04/27 03:10:28;;;;;;;1.50;1.40;;;7.60;73.00;;;;;;5127285;28;20031;-59
2022/04/27 03:12:53;;;;;;;1.38;1.20;;;7.60;73.30;;;;;;5126210;27;20232;-59
2022/04/27 03:15:19;;;;;;;1.98;0.90;;;7.70;72.40;;;;;;5125901;28;20390;-60
2022/04/27 03:17:45;;;;;;;1.48;1.33;;;7.70;72.00;;;;;;5113504;28;20028;-58
2022/04/27 03:20:10;;;;;;;1.50;1.23;;;7.70;71.80;;;;;;5121174;28;20031;-60
2022/04/27 03:22:36;;;;;;;1.17;1.08;;;7.70;71.40;;;;;;5121376;28;20023;-60
2022/04/27 03:25:03;;;;;;;2.60;1.77;;;7.70;71.30;;;;;;5126613;27;20110;-60
2022/04/27 03:27:28;;;;;;;1.30;1.10;;;7.70;71.20;;;;;;5127323;27;20462;-60
2022/04/27 03:29:54;;;;;;;2.60;1.50;;;7.70;71.10;;;;;;5125237;28;20115;-60
2022/04/27 03:32:20;;;;;;;1.23;1.13;;;7.70;71.00;;;;;;5126803;28;20039;-60
2022/04/27 03:34:46;;;;;;;0.85;0.85;;;7.60;70.90;;;;;;5117344;27;20020;-60
2022/04/27 03:37:12;;;;;;;3.05;1.67;;;7.60;70.80;;;;;;5119917;28;20131;-60
2022/04/27 03:39:38;;;;;;;0.70;0.70;;;7.60;71.30;;;;;;5124715;28;20107;-60
2022/04/27 03:42:04;;;;;;;1.20;1.05;;;7.60;70.70;;;;;;5126577;28;20035;-61
2022/04/27 03:44:29;;;;;;;1.40;1.30;;;7.60;70.70;;;;;;5106417;28;20056;-61
2022/04/27 03:46:55;;;;;;;4.68;1.00;;;7.50;70.80;;;;;;5125100;28;20039;-60
2022/04/27 03:49:21;;;;;;;3.83;1.77;;;7.50;71.00;;;;;;5126024;28;20064;-60
2022/04/27 03:51:46;;;;;;;2.08;1.70;;;7.50;71.20;;;;;;5111121;28;20036;-60
2022/04/27 03:54:12;;;;;;;1.75;1.65;;;7.50;70.50;;;;;;5125831;28;20020;-59
2022/04/27 03:56:38;;;;;;;2.17;1.00;;;7.40;70.40;;;;;;5115811;28;20106;-60
2022/04/27 03:59:03;;;;;;;5.53;1.63;;;7.40;70.40;;;;;;5084557;28;20142;-58
2022/04/27 04:01:29;;;;;;;2.40;1.80;;;7.30;70.30;;;;;;5112113;28;20096;-60
2022/04/27 04:03:57;;;;;;;4.13;1.50;;;7.30;70.50;;;;;;5107249;28;20042;-60
2022/04/27 04:06:22;;;;;;;1.42;0.93;;;7.30;70.60;;;;;;5111221;28;20110;-61
2022/04/27 04:08:48;;;;;;;1.92;1.48;;;7.20;70.60;;;;;;5109626;28;20513;-60
2022/04/27 04:11:14;;;;;;;0.73;0.73;;;7.20;70.70;;;;;;5110955;28;20047;-60
2022/04/27 04:13:40;;;;;;;3.22;1.50;;;7.10;70.70;;;;;;5111132;28;20105;-60
2022/04/27 04:16:05;;;;;;;2.28;1.52;;;7.10;70.80;;;;;;5112056;28;20492;-59
2022/04/27 04:18:31;;;;;;;1.27;1.15;;;7.10;70.90;;;;;;5111663;28;20008;-58
2022/04/27 04:20:57;;;;;;;2.00;1.13;;;7.10;71.00;;;;;;5111837;28;20084;-58
2022/04/27 04:23:23;;;;;;;3.50;1.85;;;7.00;71.00;;;;;;5111065;28;20076;-59
2022/04/27 04:28:32;;;;;;;1.52;1.25;;;7.00;71.00;;;;;;5111765;28;20061;-59
2022/04/27 04:31:03;;;;;;;1.58;1.50;;;7.00;70.90;;;;;;5111847;28;20362;-59
2022/04/27 04:33:30;;;;;;;3.63;1.98;;;7.00;70.90;;;;;;5110148;28;20027;-58
2022/04/27 04:35:59;;;;;;;1.08;0.98;;;6.90;70.90;;;;;;5112463;28;20035;-59
2022/04/27 04:38:25;;;;;;;2.50;1.92;;;6.90;71.10;;;;;;5111825;28;20032;-59
2022/04/27 04:40:52;;;;;;;1.63;1.45;;;6.90;71.20;;;;;;5110496;28;20016;-61
2022/04/27 04:43:18;;;;;;;2.28;1.55;;;6.90;71.30;;;;;;5105387;28;20435;-60
2022/04/27 04:45:44;;;;;;;3.20;1.55;;;6.90;71.40;;;;;;5108901;28;20048;-60
2022/04/27 04:48:10;;;;;;;0.80;0.80;;;6.90;71.40;;;;;;5111285;28;20012;-60
2022/04/27 04:50:36;;;;;;;1.00;1.00;;;6.90;71.60;;;;;;5108980;28;20023;-60
2022/04/27 04:53:03;;;;;;;1.90;1.27;;;6.80;71.80;;;;;;5110777;28;20027;-58
2022/04/27 04:55:29;;;;;;;3.33;1.52;;;6.90;72.10;;;;;;5111203;28;20024;-59
2022/04/27 04:57:55;;;;;;;1.30;1.13;;;6.90;72.20;;;;;;5109869;28;20096;-59
2022/04/27 05:00:21;;;;;;;2.63;2.00;;;6.90;72.50;;;;;;5106368;28;20061;-59
2022/04/27 05:02:46;;;;;;;4.60;1.25;;;6.90;72.60;;;;;;5110173;28;20051;-59
2022/04/27 05:05:12;;;;;;;1.23;1.00;;;6.90;72.80;;;;;;5111549;28;20139;-58
2022/04/27 05:07:38;;;;;;;1.13;1.00;;;6.90;73.00;;;;;;5110377;28;20103;-58
2022/04/27 05:10:05;;;;;;;3.67;1.48;;;6.90;73.90;;;;;;5111776;28;20397;-58
2022/04/27 05:12:31;;;;;;;3.22;1.77;;;6.90;73.60;;;;;;5110006;28;20020;-59
2022/04/27 05:14:58;;;;;;;1.52;1.17;;;6.90;73.70;;;;;;5110937;28;20058;-59
2022/04/27 05:17:24;;;;;;;1.23;1.17;;;7.00;73.70;;;;;;5105707;28;20027;-59
2022/04/27 05:19:52;;;;;;;1.27;1.17;;;7.10;73.80;;;;;;5111365;28;20097;-59
2022/04/27 05:22:18;;;;;;;1.95;1.38;;;7.10;74.00;;;;;;5111990;28;20362;-59
2022/04/27 05:24:44;;;;;;;1.95;1.50;;;7.10;74.30;;;;;;5111037;28;20132;-58
2022/04/27 05:27:09;;;;;;;3.15;1.38;;;7.20;74.60;;;;;;5111350;28;20531;-60
2022/04/27 05:32:19;;;;;;;1.70;1.55;;;7.20;75.00;;;;;;5109965;28;20074;-60
2022/04/27 05:34:45;;;;;;;2.20;1.75;;;7.30;75.20;;;;;;5110048;28;20064;-60
2022/04/27 05:37:12;;;;;;;1.33;1.23;;;7.30;75.20;;;;;;5111414;28;20035;-59
2022/04/27 05:39:38;;;;;;;2.60;1.55;;;7.40;75.30;;;;;;5109812;28;20432;-59
2022/04/27 05:42:04;;;;;;;0.88;0.88;;;7.50;75.40;;;;;;5111482;28;20061;-59
2022/04/27 05:44:31;;;;;;;2.33;1.58;;;7.50;75.30;;;;;;5108560;28;20409;-60
2022/04/27 05:46:57;;;;;;;1.55;1.30;;;7.60;75.50;;;;;;5111537;28;20077;-58
2022/04/27 05:49:23;;;;;;;7.60;1.80;;;7.60;75.70;;;;;;5107538;28;20024;-59
2022/04/27 05:51:48;;;;;;;1.60;1.50;;;7.70;75.80;;;;;;5099309;28;20066;-59
2022/04/27 05:54:15;;;;;;;2.05;1.30;;;7.70;75.70;;;;;;5110800;28;20027;-60
2022/04/27 05:56:41;;;;;;;2.33;1.40;;;7.80;75.70;;;;;;5109732;28;20046;-61
2022/04/27 05:59:08;;;;;;;9.73;1.35;;;7.90;75.70;;;;;;5099046;28;20406;-59
2022/04/27 06:01:33;;;;;;;2.05;1.00;;;8.00;75.60;;;;;;5109497;28;20034;-60
2022/04/27 06:03:59;;;;;;;1.13;1.02;;;8.10;75.40;;;;;;5110526;28;20373;-59
2022/04/27 06:06:25;;;;;;;0.95;0.90;;;8.10;75.30;;;;;;5108246;28;20093;-59
2022/04/27 06:08:51;;;;;;;1.30;1.17;;;8.20;75.20;;;;;;5136989;27;20126;-58
2022/04/27 06:11:19;;;;;;;3.20;1.25;;;8.30;75.20;;;;;;5110715;28;20076;-59
2022/04/27 06:13:48;;;;;;;1.45;1.35;;;8.40;75.20;;;;;;5109636;28;20028;-59
2022/04/27 06:16:14;;;;;;;2.72;1.52;;;8.40;75.00;;;;;;5110373;28;20031;-59
2022/04/27 06:18:41;;;;;;;4.03;1.40;;;8.50;75.00;;;;;;5109316;28;20051;-59
2022/04/27 06:21:10;;;;;;;1.30;1.20;;;8.60;75.00;;;;;;5110182;28;20020;-59
2022/04/27 06:23:37;;;;;;;2.08;1.52;;;8.60;74.80;;;;;;5104273;28;20016;-59
2022/04/27 06:26:05;;;;;;;0.80;0.73;;;8.60;74.70;;;;;;5105435;28;20103;-61
2022/04/27 06:28:32;;;;;;;1.33;1.15;;;8.70;74.70;;;;;;5109916;28;20055;-60
2022/04/27 06:30:58;;;;;;;2.17;1.08;;;8.80;74.60;;;;;;5110507;28;20474;-59
2022/04/27 06:33:24;;;;;;;1.05;0.88;;;8.80;74.50;;;;;;5109345;28;20103;-58
2022/04/27 06:35:50;;;;;;;1.55;1.13;;;8.90;74.50;;;;;;5110019;28;20486;-59
2022/04/27 06:38:16;;;;;;;1.13;1.02;;;8.90;74.20;;;;;;5109532;28;20081;-59
2022/04/27 06:40:42;;;;;;;3.67;1.42;;;9.00;74.00;;;;;;5102184;28;20032;-61
2022/04/27 06:43:07;;;;;;;1.27;0.90;;;9.00;73.80;;;;;;5107361;28;20434;-61
2022/04/27 06:45:36;;;;;;;1.65;1.38;;;9.00;73.70;;;;;;5109993;28;20447;-60
2022/04/27 06:48:05;;;;;;;1.52;0.93;;;9.10;73.60;;;;;;5110143;28;20434;-59
2022/04/27 06:50:31;;;;;;;1.33;1.08;;;9.10;73.60;;;;;;5110408;28;20034;-58
2022/04/27 06:53:00;;;;;;;2.00;1.20;;;9.20;73.50;;;;;;5108638;28;20107;-59
2022/04/27 06:55:26;;;;;;;1.67;1.33;;;9.30;73.40;;;;;;5110371;28;20034;-58
2022/04/27 06:57:53;;;;;;;1.45;1.35;;;9.30;73.10;;;;;;5093844;28;20036;-61
2022/04/27 07:00:19;;;;;;;3.72;1.80;;;9.30;73.00;;;;;;5110697;28;20058;-60
2022/04/27 07:02:44;;;;;;;1.10;1.08;;;9.40;72.90;;;;;;5109519;28;20035;-61
2022/04/27 07:05:16;;;;;;;1.13;1.13;;;9.50;72.80;;;;;;5091222;28;20036;-59
2022/04/27 07:07:43;;;;;;;2.92;1.20;;;9.50;72.60;;;;;;5101008;28;20017;-59
2022/04/27 07:10:10;;;;;;;2.05;1.30;;;9.50;72.20;;;;;;5109672;28;20046;-59
2022/04/27 07:12:36;;;;;;;4.53;1.17;;;9.60;71.90;;;;;;5108708;28;20469;-59
2022/04/27 07:15:02;;;;;;;2.95;1.00;;;9.70;71.90;;;;;;5098545;28;20030;-59
2022/04/27 07:17:28;;;;;;;1.02;0.93;;;9.70;71.80;;;;;;5090257;28;20481;-58
2022/04/27 07:19:54;;;;;;;3.00;1.25;;;9.70;71.40;;;;;;5101130;28;20090;-59
2022/04/27 07:22:19;;;;;;;2.22;1.40;;;9.80;71.30;;;;;;5101158;28;20038;-59
2022/04/27 07:24:45;;;;;;;1.75;1.38;;;9.80;71.10;;;;;;5103889;28;20031;-59
2022/04/27 07:27:11;;;;;;;1.60;1.40;;;9.80;71.00;;;;;;5105250;28;20032;-59
2022/04/27 07:29:37;;;;;;;0.82;0.82;;;9.90;70.60;;;;;;5103737;28;20032;-59
2022/04/27 07:32:03;;;;;;;1.15;0.77;;;10.00;70.50;;;;;;5096060;28;20088;-59
2022/04/27 07:34:30;;;;;;;8.60;0.93;;;10.10;70.00;;;;;;5109556;28;20070;-59
2022/04/27 07:36:58;;;;;;;1.20;1.05;;;10.10;69.80;;;;;;5111463;28;20019;-59
2022/04/27 07:39:24;;;;;;;0.70;0.70;;;10.20;69.20;;;;;;5108191;28;20023;-59
2022/04/27 07:41:49;;;;;;;1.70;1.20;;;10.20;69.00;;;;;;5107362;28;20032;-59
2022/04/27 07:44:15;;;;;;;0.80;0.80;;;10.20;69.00;;;;;;5108882;28;20087;-59
2022/04/27 07:46:43;;;;;;;3.10;0.80;;;10.30;69.10;;;;;;5109932;28;20529;-59
2022/04/27 07:49:08;;;;;;;0.80;0.80;;;10.40;69.10;;;;;;5108258;28;20028;-59
2022/04/27 07:51:34;;;;;;;1.17;0.88;;;10.50;69.00;;;;;;5112775;28;20040;-59
2022/04/27 07:54:00;;;;;;;1.25;0.85;;;10.50;68.70;;;;;;5112610;28;20030;-59
2022/04/27 07:56:25;;;;;;;1.35;1.25;;;10.60;68.40;;;;;;5101753;28;20492;-59
2022/04/27 07:58:51;;;;;;;2.70;0.98;;;10.70;67.40;;;;;;5108725;28;20053;-59
2022/04/27 08:01:17;;;;;;;0.82;0.82;;;10.70;67.50;;;;;;5092242;28;20379;-59
2022/04/27 08:03:42;;;;;;;1.05;0.85;;;10.80;66.90;;;;;;5105939;28;20423;-60
2022/04/27 08:06:08;;;;;;;0.38;0.38;;;10.80;65.50;;;;;;5103838;28;20455;-59
2022/04/27 08:08:35;;;;;;;1.42;1.00;;;10.90;64.90;;;;;;5105448;28;20375;-59
2022/04/27 08:11:01;;;;;;;1.45;0.95;;;10.90;64.20;;;;;;5112338;28;20031;-59
2022/04/27 08:13:27;;;;;;;0.77;0.70;;;10.90;64.60;;;;;;5089905;28;20598;-60
2022/04/27 08:15:52;;;;;;;0.43;0.43;;;11.00;63.80;;;;;;5111783;28;20040;-60
2022/04/27 08:18:20;;;;;;;0.60;0.60;;;11.00;62.40;;;;;;5111445;28;20563;-59
2022/04/27 08:23:32;;;;;;;0.98;0.82;;;11.20;63.00;;;;;;5105333;28;20105;-59
2022/04/27 08:26:03;;;;;;;0.50;0.50;;;11.40;62.10;;;;;;5111704;28;20035;-59
2022/04/27 08:28:29;;;;;;;2.78;0.93;;;11.50;62.00;;;;;;5110896;28;20023;-58
2022/04/27 08:30:56;;;;;;;4.40;0.80;;;11.70;61.80;;;;;;5101500;28;20118;-60
2022/04/27 08:33:22;;;;;;;1.13;0.77;;;11.80;61.70;;;;;;5079667;28;20044;-60
2022/04/27 08:35:48;;;;;;;0.65;0.47;;;12.00;61.80;;;;;;5092974;28;20016;-60
2022/04/27 08:38:15;;;;;;;1.00;0.80;;;12.10;61.20;;;;;;5086979;28;20032;-60
2022/04/27 08:40:43;;;;;;;1.33;1.02;;;12.20;61.00;;;;;;5100715;28;20028;-60
2022/04/27 08:43:12;;;;;;;0.57;0.50;;;12.20;60.60;;;;;;5088944;28;20028;-60
2022/04/27 08:45:43;;;;;;;0.60;0.60;;;12.30;60.10;;;;;;5085467;28;20044;-60
2022/04/27 08:48:10;;;;;;;1.00;0.88;;;12.30;60.00;;;;;;5094015;28;20032;-59
2022/04/27 08:50:36;;;;;;;0.73;0.73;;;12.30;60.30;;;;;;5102242;28;20085;-59
2022/04/27 08:53:02;;;;;;;1.25;0.93;;;12.40;60.30;;;;;;5093407;28;20063;-59
2022/04/27 08:55:28;;;;;;;0.70;0.60;;;12.40;60.00;;;;;;5092206;28;20062;-59
2022/04/27 08:58:17;;;;;;;0.68;0.65;;;12.50;59.90;;;;;;5097662;28;20561;-60
2022/04/27 09:00:45;;;;;;;1.02;0.90;;;12.50;58.40;;;;;;5102366;28;20032;-58
2022/04/27 09:03:24;;;;;;;0.55;0.55;;;12.40;56.90;;;;;;5085389;28;20036;-59
2022/04/27 09:05:51;;;;;;;0.70;0.70;;;12.50;57.10;;;;;;5097691;28;20040;-59
2022/04/27 09:08:17;;;;;;;0.73;0.68;;;12.40;56.80;;;;;;5083027;28;20058;-59
2022/04/27 09:10:43;;;;;;;0.80;0.68;;;12.50;57.50;;;;;;5096222;28;20060;-58
2022/04/27 09:13:09;;;;;;;0.50;0.50;;;12.60;57.60;;;;;;5094466;28;20367;-58
2022/04/27 09:15:34;;;;;;;3.13;0.95;;;12.70;57.70;;;;;;5090823;28;20089;-58
2022/04/27 09:20:48;;;;;;;1.25;0.70;;;12.90;57.30;;;;;;5089984;28;20046;-58
2022/04/27 09:23:38;;;;;;;0.70;0.70;;;13.00;56.90;;;;;;5106022;28;20024;-59
2022/04/27 09:26:19;;;;;;;0.45;0.45;;;13.20;56.70;;;;;;5096056;28;20680;-58
2022/04/27 09:28:50;;;;;;;1.90;0.60;;;13.30;56.80;;;;;;5074590;28;20028;-58
2022/04/27 09:31:27;;;;;;;1.02;0.73;;;13.40;55.20;;;;;;5100192;28;20018;-59
2022/04/27 09:34:00;;;;;;;2.38;0.80;;;13.40;55.20;;;;;;5107616;28;20035;-59
2022/04/27 09:36:27;;;;;;;0.47;0.43;;;13.40;55.30;;;;;;5094038;28;20024;-60
2022/04/27 09:38:54;;;;;;;2.60;0.88;;;13.40;55.30;;;;;;5096603;28;20028;-60
2022/04/27 09:41:41;;;;;;;1.08;0.88;;;13.40;55.50;;;;;;5104573;28;20204;-61
2022/04/27 09:44:07;;;;;;;0.50;0.50;;;13.50;55.60;;;;;;5104866;28;20035;-60
2022/04/27 09:46:40;;;;;;;0.85;0.65;;;13.60;54.70;;;;;;5094616;28;20039;-58
2022/04/27 09:49:07;;;;;;;1.88;0.55;;;13.50;54.10;;;;;;5095788;28;20027;-60
2022/04/27 09:51:37;;;;;;;0.80;0.70;;;13.50;54.30;;;;;;5109991;28;20027;-60
2022/04/27 09:54:04;;;;;;;1.08;0.60;;;13.60;53.90;;;;;;5099301;28;20054;-61
2022/04/27 09:56:37;;;;;;;0.43;0.43;;;13.80;53.50;;;;;;5086436;28;20028;-60
2022/04/27 09:59:05;;;;;;;1.20;0.82;;;14.00;53.50;;;;;;5094515;28;20043;-58
2022/04/27 10:01:35;;;;;;;1.67;1.02;;;14.10;52.50;;;;;;5099469;28;20039;-59
2022/04/27 10:04:06;;;;;;;0.98;0.90;;;14.20;51.60;;;;;;5090960;28;20073;-58
2022/04/27 10:06:33;;;;;;;7.10;0.95;;;14.20;52.00;;;;;;5089649;28;20052;-58
2022/04/27 10:09:00;;;;;;;1.17;0.88;;;14.30;52.50;;;;;;5088130;28;20084;-59
2022/04/27 10:11:29;;;;;;;0.98;0.85;;;14.60;53.40;;;;;;5091388;28;20032;-60
2022/04/27 10:13:55;;;;;;;0.60;0.60;;;14.80;52.10;;;;;;5090802;28;20511;-61
2022/04/27 10:16:23;;;;;;;1.23;0.95;;;14.80;51.90;;;;;;5110237;28;20304;-61
2022/04/27 10:18:50;;;;;;;0.70;0.70;;;14.80;51.90;;;;;;5109993;28;20020;-61
2022/04/27 10:21:39;;;;;;;1.00;0.95;;;14.60;52.10;;;;;;5107812;28;20024;-61
2022/04/27 10:24:08;;;;;;;1.95;0.93;;;14.50;52.30;;;;;;5107016;28;20099;-60
2022/04/27 10:26:34;;;;;;;0.70;0.57;;;14.50;52.20;;;;;;5110495;28;20031;-60
2022/04/27 10:29:05;;;;;;;1.50;1.13;;;14.40;52.70;;;;;;5110352;28;20035;-60
2022/04/27 10:31:43;;;;;;;0.95;0.90;;;14.40;51.80;;;;;;5110977;28;20442;-60
2022/04/27 10:34:20;;;;;;;1.58;0.73;;;14.30;50.70;;;;;;5109677;28;20015;-60
2022/04/27 10:36:54;;;;;;;0.98;0.70;;;14.20;51.50;;;;;;5107292;28;20030;-60
2022/04/27 10:39:21;;;;;;;0.98;0.75;;;14.20;52.00;;;;;;5105625;28;20474;-60
2022/04/27 10:41:53;;;;;;;4.60;0.80;;;14.20;52.10;;;;;;5090747;28;20035;-61
2022/04/27 10:44:19;;;;;;;;;;;14.10;52.70;;;;;;5089080;28;20123;-60
2022/04/27 10:46:45;;;;;;;0.95;0.50;;;14.10;52.20;;;;;;5088389;28;20300;-60
2022/04/27 10:49:23;;;;;;;1.55;1.25;;;14.10;52.40;;;;;;5093706;28;20494;-60
2022/04/27 10:52:00;;;;;;;3.08;0.73;;;14.10;52.30;;;;;;5110018;28;20024;-60
2022/04/27 10:54:27;;;;;;;0.65;0.60;;;14.20;51.50;;;;;;5090144;28;20040;-60
2022/04/27 10:56:53;;;;;;;1.20;0.93;;;14.40;51.50;;;;;;5088338;28;20028;-60
2022/04/27 10:59:45;;;;;;;2.13;0.70;;;14.60;50.60;;;;;;5084521;28;20124;-60
2022/04/27 11:02:34;;;;;;;1.80;0.68;;;15.20;54.30;;;;;;5075515;28;20509;-60
2022/04/27 11:05:00;;;;;;;0.52;0.52;;;13.70;61.40;;;;;;5091227;28;20370;-60
2022/04/27 11:07:29;;;;;;;0.70;0.70;;;;;;;;;;5101538;28;20024;-60
2022/04/27 11:09:58;;;;;;;1.00;0.90;;;15.30;45.80;;;;;;5100771;28;20563;-60
2022/04/27 11:12:25;;;;;;;1.17;0.70;;;15.30;46.40;;;;;;5098095;28;20468;-60
2022/04/27 11:14:58;;;;;;;0.55;0.55;;;15.30;45.50;;;;;;5091082;28;20043;-60
2022/04/27 11:17:33;;;;;;;2.10;0.80;;;15.40;46.50;;;;;;5096455;28;20016;-61
2022/04/27 11:19:58;;;;;;;3.13;0.80;;;15.60;46.60;;;;;;5103593;28;20030;-60
2022/04/27 11:22:24;;;;;;;0.50;0.50;;;15.90;47.00;;;;;;5100096;28;20103;-61
2022/04/27 11:24:50;;;;;;;0.50;0.50;;;16.20;47.90;;;;;;5101669;28;20106;-61
2022/04/27 11:27:26;;;;;;;1.75;0.90;;;16.40;47.50;;;;;;5101287;28;20031;-61
2022/04/27 11:29:53;;;;;;;0.52;0.52;;;16.70;47.20;;;;;;5093616;28;20089;-61
2022/04/27 11:32:19;;;;;;;0.70;0.70;;;16.90;45.70;;;;;;5090969;28;20034;-61
2022/04/27 11:34:49;;;;;;;0.88;0.88;;;16.90;43.90;;;;;;5086495;28;20028;-61
2022/04/27 11:37:17;;;;;;;1.15;0.60;;;16.90;43.90;;;;;;5098124;28;20038;-61
2022/04/27 11:39:44;;;;;;;0.52;0.50;;;16.90;44.30;;;;;;5105746;28;20049;-61
2022/04/27 11:42:12;;;;;;;0.73;0.73;;;17.00;44.20;;;;;;5102883;28;20609;-61
2022/04/27 11:44:41;;;;;;;0.57;0.57;;;17.20;45.00;;;;;;5096786;28;20051;-61
2022/04/27 11:47:27;;;;;;;1.65;1.00;;;17.40;44.80;;;;;;5095074;28;20082;-61
2022/04/27 11:50:04;;;;;;;5.47;0.80;;;17.30;44.40;;;;;;5096411;28;20044;-60
2022/04/27 11:52:31;;;;;;;0.30;0.30;;;17.30;44.90;;;;;;5112339;28;20027;-61
2022/04/27 11:55:02;;;;;;;0.60;0.60;;;17.20;45.50;;;;;;5100385;28;20474;-60
2022/04/27 11:57:28;;;;;;;0.80;0.70;;;17.20;45.50;;;;;;5084404;28;20035;-61
2022/04/27 11:59:57;;;;;;;0.75;0.63;;;17.10;45.70;;;;;;5102859;28;20035;-60
2022/04/27 12:02:26;;;;;;;1.80;0.90;;;17.20;46.10;;;;;;5110356;28;20110;-60
2022/04/27 12:04:58;;;;;;;0.60;0.60;;;17.20;46.40;;;;;;5106509;28;20040;-60
2022/04/27 12:07:23;;;;;;;;;;;17.20;46.40;;;;;;5103280;28;20428;-60
2022/04/27 12:10:04;;;;;;;0.75;0.73;;;17.20;46.10;;;;;;5093705;28;19909;-60
2022/04/27 12:12:31;;;;;;;0.68;0.68;;;17.00;46.40;;;;;;5098975;28;20026;-60
2022/04/27 12:15:04;;;;;;;0.65;0.65;;;17.00;46.50;;;;;;5098890;28;20019;-61
2022/04/27 12:17:53;;;;;;;0.50;0.50;;;16.90;46.50;;;;;;5093265;28;20101;-60
2022/04/27 12:20:40;;;;;;;0.82;0.60;;;16.80;47.40;;;;;;5088529;28;20031;-60
2022/04/27 12:23:07;;;;;;;1.02;0.90;;;16.70;46.90;;;;;;5104656;28;20036;-60
2022/04/27 12:25:40;;;;;;;0.40;0.40;;;16.60;46.30;;;;;;5092644;28;20077;-60
2022/04/27 12:28:08;;;;;;;0.60;0.60;;;16.50;46.20;;;;;;5095118;28;20085;-61
2022/04/27 12:31:07;;;;;;;1.17;0.90;;;16.50;46.00;;;;;;5099505;28;20020;-62
2022/04/27 12:33:45;;;;;;;0.70;0.70;;;16.40;45.80;;;;;;5083860;28;20390;-56
2022/04/27 12:39:10;;;;;;;0.52;0.52;;;16.60;45.40;;;;;;5094067;28;20434;-56
2022/04/27 12:41:47;;;;;;;0.60;0.60;;;16.80;44.30;;;;;;5094355;28;20474;-60
2022/04/27 12:44:25;;;;;;;0.40;0.40;;;17.10;44.20;;;;;;5091537;28;20060;-59
2022/04/27 12:47:04;;;;;;;0.93;0.77;;;17.30;43.70;;;;;;5099385;28;20035;-60
2022/04/27 12:49:32;;;;;;;0.70;0.70;;;17.40;43.30;;;;;;5092697;28;20103;-60
2022/04/27 12:52:23;;;;;;;0.50;0.50;;;17.40;43.50;;;;;;5097815;28;20418;-61
2022/04/27 12:54:52;;;;;;;1.15;1.05;;;17.50;43.80;;;;;;5098032;28;20112;-60
2022/04/27 12:57:18;;;;;;;2.30;0.90;;;17.50;43.30;;;;;;5103571;28;20076;-60
2022/04/27 12:59:55;;;;;;;0.75;0.60;;;17.60;43.20;;;;;;5097415;28;20474;-60
2022/04/27 13:02:21;;;;;;;1.48;0.88;;;17.80;42.30;;;;;;5077878;28;20432;-60
2022/04/27 13:04:47;;;;;;;0.70;0.70;;;17.80;42.00;;;;;;5078971;28;20041;-60
2022/04/27 13:07:13;;;;;;;0.95;0.80;;;17.80;41.00;;;;;;5071524;28;20081;-61
2022/04/27 13:12:31;;;;;;;0.93;0.75;;;17.30;41.00;;;;;;5077869;28;20543;-59
2022/04/27 13:14:58;;;;;;;1.73;0.70;;;17.00;41.60;;;;;;5098025;28;20077;-59
2022/04/27 13:17:24;;;;;;;0.80;0.80;;;16.90;42.10;;;;;;5098308;28;20034;-60
2022/04/27 13:19:50;;;;;;;0.60;0.60;;;16.80;42.70;;;;;;5090486;28;20036;-60
2022/04/27 13:22:16;;;;;;;0.80;0.80;;;16.90;43.00;;;;;;5091763;28;20081;-60
2022/04/27 13:24:41;;;;;;;0.50;0.50;;;17.00;43.20;;;;;;5087572;28;20039;-60
2022/04/27 13:27:07;;;;;;;1.40;0.95;;;17.10;43.10;;;;;;5093177;28;20032;-59
2022/04/27 13:29:33;;;;;;;0.80;0.80;;;17.10;43.20;;;;;;5092337;28;20048;-60
2022/04/27 13:31:58;;;;;;;1.33;0.90;;;17.00;43.70;;;;;;5094130;28;20085;-60
2022/04/27 13:34:24;;;;;;;0.88;0.88;;;17.00;42.90;;;;;;5102348;28;20166;-60
2022/04/27 13:36:49;;;;;;;0.73;0.60;;;17.00;43.40;;;;;;5103081;28;20059;-62
2022/04/27 13:39:17;;;;;;;2.80;1.25;;;17.10;43.80;;;;;;5093498;28;20043;-62
2022/04/27 13:41:43;;;;;;;0.50;0.50;;;17.30;44.20;;;;;;5090577;28;20032;-62
2022/04/27 13:44:10;;;;;;;0.73;0.70;;;17.60;44.30;;;;;;5096337;28;20432;-62
2022/04/27 13:46:36;;;;;;;0.50;0.50;;;17.80;44.00;;;;;;5095039;28;20024;-62
2022/04/27 13:49:03;;;;;;;0.57;0.57;;;17.90;44.00;;;;;;5094174;28;20499;-61
2022/04/27 13:51:30;;;;;;;0.60;0.60;;;17.80;44.70;;;;;;5078922;28;20034;-60
2022/04/27 13:53:58;;;;;;;1.40;0.85;;;17.80;44.10;;;;;;5087586;28;20031;-62
2022/04/27 13:56:27;;;;;;;0.63;0.50;;;17.70;44.00;;;;;;5086113;28;20498;-61
2022/04/27 13:58:53;;;;;;;0.73;0.73;;;17.60;44.10;;;;;;5087901;28;20089;-62
2022/04/27 14:01:19;;;;;;;2.08;1.02;;;17.60;44.30;;;;;;5088597;28;20032;-62
2022/04/27 14:03:46;;;;;;;0.50;0.50;;;17.60;44.30;;;;;;5088079;28;20024;-62
2022/04/27 14:06:12;;;;;;;0.65;0.65;;;17.60;44.50;;;;;;5096549;28;20036;-62
2022/04/27 14:08:38;;;;;;;0.63;0.60;;;17.90;44.40;;;;;;5085837;28;20034;-61
2022/04/27 14:11:04;;;;;;;3.95;0.80;;;18.20;43.90;;;;;;5088875;28;20084;-61
2022/04/27 14:13:29;;;;;;;0.75;0.65;;;18.30;43.60;;;;;;5083527;28;20024;-62
2022/04/27 14:18:39;;;;;;;0.63;0.63;;;18.20;43.50;;;;;;5094625;28;20127;-61
2022/04/27 14:21:06;;;;;;;1.15;0.80;;;18.20;43.90;;;;;;5095411;28;20069;-61
2022/04/27 14:23:32;;;;;;;0.95;0.75;;;18.20;44.00;;;;;;5082148;28;20035;-62
2022/04/27 14:25:58;;;;;;;0.82;0.70;;;18.20;43.80;;;;;;5082972;28;20418;-62
2022/04/27 14:28:24;;;;;;;0.98;0.55;;;18.20;43.40;;;;;;5087373;28;20024;-62
2022/04/27 14:30:50;;;;;;;0.77;0.77;;;18.20;43.60;;;;;;5100132;28;20382;-61
2022/04/27 14:33:18;;;;;;;3.00;1.00;;;18.30;43.60;;;;;;5090062;28;20099;-62
2022/04/27 14:35:45;;;;;;;1.42;0.82;;;18.40;43.20;;;;;;5104776;28;20067;-62
2022/04/27 14:38:11;;;;;;;3.40;0.63;;;18.40;42.70;;;;;;5097195;28;20076;-61
2022/04/27 14:40:38;;;;;;;0.57;0.57;;;18.50;43.10;;;;;;5089906;28;20423;-62
